createdAt,value
2022-09-30T00:01:25.873Z,14.02
2022-09-30T00:03:54.498Z,13.98
2022-09-30T00:06:22.666Z,13.25
2022-09-30T00:08:50.195Z,15.30
2022-09-30T00:11:20.835Z,16.85
2022-09-30T00:13:50.555Z,12.68
2022-09-30T00:16:19.968Z,13.32
2022-09-30T00:18:47.492Z,11.90
2022-09-30T00:21:16.076Z,12.70
2022-09-30T00:23:44.852Z,13.82
2022-09-30T00:26:14.748Z,12.27
2022-09-30T00:28:42.869Z,14.75
2022-09-30T00:31:15.437Z,12.07
2022-09-30T00:33:43.358Z,13.93
2022-09-30T00:36:11.077Z,12.68
2022-09-30T00:38:38.423Z,13.45
2022-09-30T00:41:05.868Z,14.15
2022-09-30T00:43:46.646Z,14.70
2022-09-30T00:46:40.976Z,16.48
2022-09-30T00:49:29.767Z,14.15
2022-09-30T00:51:57.765Z,14.70
2022-09-30T00:54:29.793Z,13.98
2022-09-30T00:57:00.581Z,15.98
2022-09-30T00:59:34.904Z,14.05
2022-09-30T01:02:02.467Z,15.10
2022-09-30T01:04:31.985Z,11.52
2022-09-30T01:07:03.908Z,11.93
2022-09-30T01:09:33.014Z,12.00
2022-09-30T01:12:01.012Z,11.93
2022-09-30T01:14:28.692Z,11.48
2022-09-30T01:17:02.148Z,8.35
2022-09-30T01:19:29.358Z,8.63
2022-09-30T01:22:22.635Z,7.70
2022-09-30T01:25:23.727Z,5.87
2022-09-30T01:28:21.194Z,8.38
2022-09-30T01:31:08.267Z,6.50
2022-09-30T01:34:12.909Z,6.28
2022-09-30T01:37:17.576Z,6.90
2022-09-30T01:39:48.243Z,5.10
2022-09-30T01:42:50.743Z,3.20
2022-09-30T01:45:33.303Z,3.75
2022-09-30T01:48:06.422Z,4.78
2022-09-30T01:50:49.968Z,7.95
2022-09-30T01:53:26.993Z,4.50
2022-09-30T01:56:02.871Z,5.50
2022-09-30T01:58:38.542Z,6.40
2022-09-30T02:01:09.303Z,5.53
2022-09-30T02:03:50.082Z,6.18
2022-09-30T02:06:20.837Z,6.28
2022-09-30T02:08:56.683Z,8.50
2022-09-30T02:11:27.379Z,7.80
2022-09-30T02:14:20.687Z,7.68
2022-09-30T02:17:09.426Z,8.15
2022-09-30T02:19:48.703Z,8.38
2022-09-30T02:22:22.567Z,8.07
2022-09-30T02:24:54.588Z,8.90
2022-09-30T02:27:30.157Z,9.30
2022-09-30T02:29:59.492Z,8.38
2022-09-30T02:32:38.811Z,10.25
2022-09-30T02:35:10.312Z,10.07
2022-09-30T02:38:05.947Z,11.85
2022-09-30T02:40:45.309Z,11.85
2022-09-30T02:43:12.680Z,13.65
2022-09-30T02:45:49.380Z,12.07
2022-09-30T02:48:43.154Z,12.20
2022-09-30T02:51:29.904Z,12.32
2022-09-30T02:54:19.215Z,11.90
2022-09-30T02:57:00.033Z,13.75
2022-09-30T02:59:27.729Z,12.88
2022-09-30T03:01:55.425Z,11.30
2022-09-30T03:04:25.585Z,12.00
2022-09-30T03:06:53.091Z,12.18
2022-09-30T03:09:26.162Z,9.63
2022-09-30T03:12:15.501Z,10.88
2022-09-30T03:15:18.593Z,13.02
2022-09-30T03:17:45.780Z,10.98
2022-09-30T03:20:16.276Z,10.98
2022-09-30T03:23:11.403Z,12.13
2022-09-30T03:26:00.790Z,11.02
2022-09-30T03:28:33.178Z,11.25
2022-09-30T03:31:06.687Z,12.55
2022-09-30T03:33:44.795Z,12.85
2022-09-30T03:36:33.906Z,11.52
2022-09-30T03:39:05.222Z,10.35
2022-09-30T03:41:37.796Z,9.60
2022-09-30T03:44:28.093Z,11.65
2022-09-30T03:47:05.659Z,14.02
2022-09-30T03:49:39.776Z,12.90
2022-09-30T03:52:08.963Z,11.98
2022-09-30T03:54:46.177Z,15.10
2022-09-30T03:57:14.223Z,14.50
2022-09-30T03:59:41.541Z,12.57
2022-09-30T04:02:10.547Z,13.40
2022-09-30T04:04:38.186Z,13.02
2022-09-30T04:07:05.758Z,12.50
2022-09-30T04:09:33.128Z,13.68
2022-09-30T04:12:00.900Z,13.50
2022-09-30T04:14:28.245Z,13.23
2022-09-30T04:16:55.624Z,13.75
2022-09-30T04:19:23.283Z,13.65
2022-09-30T04:21:54.225Z,13.65
2022-09-30T04:24:22.673Z,12.07
2022-09-30T04:26:50.855Z,12.57
2022-09-30T04:29:18.222Z,11.75
2022-09-30T04:31:45.807Z,13.32
2022-09-30T04:34:13.404Z,12.60
2022-09-30T04:36:40.763Z,14.55
2022-09-30T04:39:08.093Z,14.48
2022-09-30T04:41:36.659Z,14.02
2022-09-30T04:44:07.830Z,10.05
2022-09-30T04:46:36.847Z,12.40
2022-09-30T04:49:08.771Z,12.27
2022-09-30T04:51:37.236Z,13.85
2022-09-30T04:54:04.930Z,15.88
2022-09-30T04:56:32.272Z,14.95
2022-09-30T04:58:59.604Z,14.82
2022-09-30T05:01:27.249Z,14.60
2022-09-30T05:03:55.041Z,14.48
2022-09-30T05:06:22.364Z,14.65
2022-09-30T05:08:49.976Z,15.35
2022-09-30T05:11:19.406Z,16.42
2022-09-30T05:13:47.780Z,16.42
2022-09-30T05:16:16.940Z,16.27
2022-09-30T05:18:46.184Z,15.88
2022-09-30T05:21:15.470Z,18.17
2022-09-30T05:23:43.130Z,19.27
2022-09-30T05:26:12.476Z,19.60
2022-09-30T05:28:41.796Z,16.98
2022-09-30T05:31:09.999Z,17.70
2022-09-30T05:33:37.402Z,17.95
2022-09-30T05:36:07.576Z,19.58
2022-09-30T05:38:35.556Z,16.00
2022-09-30T05:41:07.716Z,18.87
2022-09-30T05:43:38.208Z,16.90
2022-09-30T05:46:05.710Z,15.73
2022-09-30T05:48:33.101Z,17.52
2022-09-30T05:51:01.720Z,18.92
2022-09-30T05:53:31.241Z,18.83
2022-09-30T05:55:59.391Z,18.25
2022-09-30T05:58:27.587Z,18.92
2022-09-30T06:00:55.112Z,17.98
2022-09-30T06:03:23.110Z,17.33
2022-09-30T06:05:56.390Z,17.00
2022-09-30T06:08:24.456Z,18.23
2022-09-30T06:10:51.871Z,18.55
2022-09-30T06:13:20.704Z,19.73
2022-09-30T06:15:58.903Z,19.62
2022-09-30T06:18:27.529Z,16.87
2022-09-30T06:21:03.189Z,16.45
2022-09-30T06:23:32.361Z,16.83
2022-09-30T06:26:00.193Z,13.80
2022-09-30T06:28:28.135Z,14.35
2022-09-30T06:30:55.471Z,14.40
2022-09-30T06:33:23.091Z,15.50
2022-09-30T06:35:50.934Z,10.85
2022-09-30T06:38:18.383Z,11.32
2022-09-30T06:40:50.147Z,11.30
2022-09-30T06:43:20.978Z,11.75
2022-09-30T06:45:51.830Z,8.45
2022-09-30T06:48:32.749Z,10.23
2022-09-30T06:51:03.882Z,9.10
2022-09-30T06:53:31.183Z,9.98
2022-09-30T06:55:58.899Z,10.30
2022-09-30T06:58:26.866Z,8.88
2022-09-30T07:01:02.293Z,9.02
2022-09-30T07:03:32.842Z,8.25
2022-09-30T07:06:01.967Z,9.40
2022-09-30T07:08:31.754Z,8.27
2022-09-30T07:10:59.853Z,8.95
2022-09-30T07:13:27.204Z,8.90
2022-09-30T07:15:56.605Z,7.87
2022-09-30T07:18:24.550Z,7.95
2022-09-30T07:20:53.054Z,10.25
2022-09-30T07:23:25.831Z,7.35
2022-09-30T07:25:56.902Z,9.68
2022-09-30T07:28:31.559Z,9.02
2022-09-30T07:31:30.810Z,8.25
2022-09-30T07:33:51.343Z,7.95
2022-09-30T07:36:21.518Z,9.25
2022-09-30T07:38:51.959Z,8.35
2022-09-30T07:41:24.523Z,9.60
2022-09-30T07:43:51.860Z,9.70
2022-09-30T07:46:25.508Z,9.75
2022-09-30T07:48:56.670Z,9.45
2022-09-30T07:51:30.367Z,8.95
2022-09-30T07:54:00.765Z,10.18
2022-09-30T07:56:37.060Z,9.98
2022-09-30T07:59:17.171Z,10.98
2022-09-30T08:01:45.125Z,12.68
2022-09-30T08:04:13.389Z,11.50
2022-09-30T08:06:46.889Z,12.68
2022-09-30T08:09:16.195Z,13.70
2022-09-30T08:11:43.641Z,13.40
2022-09-30T08:14:15.979Z,15.00
2022-09-30T08:16:44.426Z,15.68
2022-09-30T08:19:19.950Z,17.80
2022-09-30T08:21:48.419Z,15.68
2022-09-30T08:24:16.073Z,15.05
2022-09-30T08:26:43.485Z,15.60
2022-09-30T08:29:19.969Z,16.45
2022-09-30T08:31:52.935Z,15.63
2022-09-30T08:34:21.315Z,16.42
2022-09-30T08:36:48.769Z,15.20
2022-09-30T08:39:16.154Z,15.73
2022-09-30T08:41:52.749Z,15.07
2022-09-30T08:44:23.947Z,14.57
2022-09-30T08:47:12.555Z,14.73
2022-09-30T08:49:51.789Z,15.70
2022-09-30T08:52:30.501Z,15.15
2022-09-30T08:55:18.716Z,11.05
2022-09-30T08:57:47.627Z,12.68
2022-09-30T09:00:17.947Z,12.63
2022-09-30T09:02:50.262Z,11.82
2022-09-30T09:05:28.183Z,10.27
2022-09-30T09:08:36.471Z,12.23
2022-09-30T09:11:16.658Z,8.50
2022-09-30T09:14:03.183Z,8.90
2022-09-30T09:16:55.681Z,6.35
2022-09-30T09:19:37.046Z,7.72
2022-09-30T09:22:04.402Z,8.75
2022-09-30T09:24:45.227Z,6.93
2022-09-30T09:27:18.129Z,4.55
2022-09-30T09:30:08.756Z,4.90
2022-09-30T09:32:36.571Z,3.90
2022-09-30T09:35:33.399Z,4.68
2022-09-30T09:38:19.068Z,4.15
2022-09-30T09:41:09.719Z,5.97
2022-09-30T09:44:08.014Z,4.55
2022-09-30T09:46:45.696Z,7.12
2022-09-30T09:49:24.159Z,5.25
2022-09-30T09:52:05.811Z,6.45
2022-09-30T09:54:36.111Z,5.22
2022-09-30T09:57:09.428Z,6.55
2022-09-30T09:59:39.388Z,6.40
2022-09-30T10:02:24.178Z,6.80
2022-09-30T10:05:00.107Z,5.60
2022-09-30T10:07:29.594Z,5.72
2022-09-30T10:10:07.800Z,5.37
2022-09-30T10:12:35.625Z,5.68
2022-09-30T10:15:15.434Z,5.30
2022-09-30T10:17:42.786Z,7.10
2022-09-30T10:20:16.453Z,5.30
2022-09-30T10:22:43.830Z,8.73
2022-09-30T10:25:14.143Z,4.62
2022-09-30T10:27:51.065Z,4.53
2022-09-30T10:30:38.713Z,3.90
2022-09-30T10:33:14.851Z,5.37
2022-09-30T10:35:54.700Z,4.43
2022-09-30T10:38:24.318Z,3.87
2022-09-30T10:40:52.153Z,4.03
2022-09-30T10:43:43.326Z,3.42
2022-09-30T10:46:25.724Z,4.35
2022-09-30T10:48:55.804Z,3.50
2022-09-30T10:51:29.997Z,3.42
2022-09-30T10:53:58.426Z,3.37
2022-09-30T10:56:33.954Z,2.60
2022-09-30T10:59:04.246Z,2.30
2022-09-30T11:01:46.619Z,2.10
2022-09-30T11:04:49.474Z,2.00
2022-09-30T11:07:23.299Z,2.35
2022-09-30T11:09:57.885Z,3.30
2022-09-30T11:13:04.192Z,2.22
2022-09-30T11:15:40.682Z,1.90
2022-09-30T11:18:11.283Z,1.90
2022-09-30T11:20:45.303Z,1.52
2022-09-30T11:23:32.886Z,1.55
2022-09-30T11:26:08.187Z,1.42
2022-09-30T11:28:57.538Z,2.12
2022-09-30T11:31:57.884Z,1.00
2022-09-30T11:34:37.917Z,0.90
2022-09-30T11:37:32.714Z,0.90
2022-09-30T11:40:19.364Z,1.17
2022-09-30T11:43:08.269Z,1.20
2022-09-30T11:45:54.963Z,2.55
2022-09-30T11:48:46.391Z,1.10
2022-09-30T11:51:27.483Z,1.10
2022-09-30T11:53:57.615Z,1.17
2022-09-30T11:56:37.685Z,1.00
2022-09-30T11:59:14.660Z,1.17
2022-09-30T12:01:47.488Z,1.85
2022-09-30T12:04:42.211Z,1.30
2022-09-30T12:07:17.943Z,2.83
2022-09-30T12:09:52.656Z,7.07
2022-09-30T12:12:20.473Z,1.73
2022-09-30T12:15:03.441Z,1.95
2022-09-30T12:17:37.894Z,1.48
2022-09-30T12:22:59.067Z,2.15
2022-09-30T12:25:32.494Z,1.60
2022-09-30T12:28:36.580Z,2.33
2022-09-30T12:32:19.266Z,1.10
2022-09-30T12:35:09.653Z,1.23
2022-09-30T12:37:47.699Z,1.40
2022-09-30T12:40:20.970Z,1.23
2022-09-30T12:42:58.201Z,1.23
2022-09-30T12:45:56.596Z,1.30
2022-09-30T12:48:28.081Z,1.95
2022-09-30T12:50:57.976Z,2.33
2022-09-30T12:53:37.991Z,2.67
2022-09-30T12:56:14.422Z,1.48
2022-09-30T12:58:44.348Z,2.00
2022-09-30T13:01:15.838Z,3.58
2022-09-30T13:04:06.404Z,2.50
2022-09-30T13:06:46.451Z,1.77
2022-09-30T13:09:16.770Z,1.70
2022-09-30T13:11:49.115Z,1.95
2022-09-30T13:14:36.278Z,2.58
2022-09-30T13:17:06.814Z,4.32
2022-09-30T13:19:41.125Z,4.45
2022-09-30T13:24:57.818Z,3.92
2022-09-30T13:27:55.482Z,3.40
2022-09-30T13:30:24.266Z,3.80
2022-09-30T13:32:57.676Z,3.83
2022-09-30T13:35:37.655Z,3.72
2022-09-30T13:38:17.722Z,5.75
2022-09-30T13:41:02.255Z,4.22
2022-09-30T13:43:33.491Z,2.42
2022-09-30T13:46:07.250Z,3.15
2022-09-30T13:48:36.756Z,2.25
2022-09-30T13:51:08.923Z,2.62
2022-09-30T13:53:48.291Z,3.35
2022-09-30T13:56:25.888Z,3.12
2022-09-30T13:59:18.788Z,3.58
2022-09-30T14:01:56.501Z,3.75
2022-09-30T14:04:47.432Z,3.30
2022-09-30T14:07:40.083Z,2.40
2022-09-30T14:10:13.031Z,2.80
2022-09-30T14:13:06.126Z,2.47
2022-09-30T14:15:44.258Z,3.47
2022-09-30T14:18:50.666Z,3.42
2022-09-30T14:21:57.189Z,2.85
2022-09-30T14:24:24.425Z,2.87
2022-09-30T14:26:58.086Z,4.55
2022-09-30T14:29:31.724Z,3.05
2022-09-30T14:31:59.975Z,4.10
2022-09-30T14:34:27.835Z,4.85
2022-09-30T14:36:55.407Z,2.37
2022-09-30T14:39:28.273Z,2.72
2022-09-30T14:41:58.681Z,3.25
2022-09-30T14:44:28.508Z,2.55
2022-09-30T14:47:01.442Z,2.95
2022-09-30T14:49:36.166Z,5.12
2022-09-30T14:52:04.321Z,3.95
2022-09-30T14:54:33.106Z,3.80
2022-09-30T14:57:02.341Z,4.05
2022-09-30T14:59:32.242Z,3.50
2022-09-30T15:02:20.324Z,4.87
2022-09-30T15:04:50.927Z,3.50
2022-09-30T15:07:18.669Z,4.15
2022-09-30T15:09:47.771Z,2.55
2022-09-30T15:12:19.977Z,3.87
2022-09-30T15:14:58.707Z,3.17
2022-09-30T15:17:27.196Z,4.18
2022-09-30T15:19:56.348Z,3.87
2022-09-30T15:22:26.369Z,3.72
2022-09-30T15:24:54.185Z,3.58
2022-09-30T15:27:25.174Z,5.32
2022-09-30T15:29:59.840Z,4.90
2022-09-30T15:32:30.019Z,4.25
2022-09-30T15:34:58.730Z,5.95
2022-09-30T15:37:33.716Z,6.40
2022-09-30T15:40:20.883Z,6.85
2022-09-30T15:42:56.132Z,11.52
2022-09-30T15:45:38.607Z,8.85
2022-09-30T15:48:25.679Z,9.98
2022-09-30T15:50:54.302Z,9.82
2022-09-30T15:53:32.449Z,13.00
2022-09-30T15:56:00.490Z,9.70
2022-09-30T15:58:37.594Z,8.45
2022-09-30T16:01:22.171Z,8.43
2022-09-30T16:03:56.593Z,6.60
2022-09-30T16:06:32.853Z,7.50
2022-09-30T16:09:08.491Z,7.55
2022-09-30T16:11:41.924Z,6.28
2022-09-30T16:14:19.439Z,6.37
2022-09-30T16:16:55.547Z,8.55
2022-09-30T16:19:24.600Z,5.78
2022-09-30T16:21:54.683Z,4.03
2022-09-30T16:24:24.972Z,3.17
2022-09-30T16:26:57.086Z,3.83
2022-09-30T16:29:29.072Z,4.28
2022-09-30T16:31:56.953Z,3.75
2022-09-30T16:34:26.486Z,3.62
2022-09-30T16:36:55.878Z,4.07
2022-09-30T16:39:23.583Z,3.10
2022-09-30T16:41:52.385Z,4.40
2022-09-30T16:44:19.886Z,3.37
2022-09-30T16:46:47.563Z,4.82
2022-09-30T16:49:17.127Z,3.35
2022-09-30T16:51:44.703Z,4.90
2022-09-30T16:54:12.978Z,5.53
2022-09-30T16:56:40.299Z,6.53
2022-09-30T16:59:13.424Z,3.97
2022-09-30T17:01:41.487Z,4.03
2022-09-30T17:04:11.046Z,6.22
2022-09-30T17:06:41.548Z,4.32
2022-09-30T17:09:08.863Z,4.43
2022-09-30T17:11:37.957Z,3.50
2022-09-30T17:14:05.943Z,4.45
2022-09-30T17:16:34.338Z,5.75
2022-09-30T17:19:01.966Z,8.93
2022-09-30T17:21:34.962Z,13.32
2022-09-30T17:24:02.602Z,22.80
2022-09-30T17:26:30.419Z,13.95
2022-09-30T17:29:14.626Z,13.40
2022-09-30T17:31:46.580Z,13.70
2022-09-30T17:34:13.927Z,14.70
2022-09-30T17:36:41.786Z,18.48
2022-09-30T17:39:11.383Z,18.58
2022-09-30T17:41:57.447Z,23.62
2022-09-30T17:44:26.345Z,22.85
2022-09-30T17:47:00.189Z,22.25
2022-09-30T17:49:32.618Z,23.65
2022-09-30T17:52:00.657Z,20.45
2022-09-30T17:54:28.917Z,14.90
2022-09-30T17:56:57.297Z,15.32
2022-09-30T17:59:26.032Z,12.60
2022-09-30T18:01:56.568Z,17.62
2022-09-30T18:04:27.370Z,15.48
2022-09-30T18:06:55.505Z,12.10
2022-09-30T18:09:23.308Z,12.85
2022-09-30T18:11:50.928Z,12.93
2022-09-30T18:14:18.251Z,14.13
2022-09-30T18:16:45.831Z,14.52
2022-09-30T18:21:45.802Z,12.27
2022-09-30T18:24:13.182Z,18.05
2022-09-30T18:26:40.799Z,16.45
2022-09-30T18:29:08.176Z,17.45
2022-09-30T18:31:37.433Z,18.77
2022-09-30T18:34:06.474Z,18.85
2022-09-30T18:36:34.009Z,20.27
2022-09-30T18:39:02.270Z,16.73
2022-09-30T18:41:33.782Z,14.75
2022-09-30T18:44:03.035Z,13.65
2022-09-30T18:46:31.642Z,12.43
2022-09-30T18:48:59.388Z,14.55
2022-09-30T18:51:26.827Z,13.68
2022-09-30T18:54:00.028Z,10.63
2022-09-30T18:56:32.605Z,10.43
2022-09-30T18:59:01.425Z,11.43
2022-09-30T19:01:28.957Z,12.70
2022-09-30T19:03:56.402Z,13.52
2022-09-30T19:06:32.144Z,10.02
2022-09-30T19:08:59.549Z,12.75
2022-09-30T19:11:30.389Z,9.90
2022-09-30T19:13:58.780Z,10.60
2022-09-30T19:16:26.993Z,7.60
2022-09-30T19:18:55.438Z,8.57
2022-09-30T19:21:23.104Z,8.98
2022-09-30T19:23:50.469Z,7.65
2022-09-30T19:26:18.069Z,7.97
2022-09-30T19:28:45.643Z,7.20
2022-09-30T19:31:17.046Z,8.13
2022-09-30T19:33:55.890Z,6.95
2022-09-30T19:36:25.457Z,6.97
2022-09-30T19:39:05.237Z,7.28
2022-09-30T19:41:36.039Z,9.30
2022-09-30T19:44:03.807Z,9.75
2022-09-30T19:46:31.151Z,7.62
2022-09-30T19:48:58.535Z,7.93
2022-09-30T19:51:31.176Z,6.90
2022-09-30T19:54:06.253Z,8.25
2022-09-30T19:56:37.122Z,7.68
2022-09-30T19:59:05.047Z,9.20
2022-09-30T20:01:35.112Z,11.43
2022-09-30T20:04:05.313Z,9.70
2022-09-30T20:06:34.135Z,7.75
2022-09-30T20:09:04.634Z,11.43
2022-09-30T20:11:37.076Z,12.57
2022-09-30T20:14:26.190Z,13.70
2022-09-30T20:16:54.356Z,14.15
2022-09-30T20:19:22.990Z,11.10
2022-09-30T20:21:51.778Z,12.82
2022-09-30T20:24:19.634Z,11.65
2022-09-30T20:26:47.600Z,9.07
2022-09-30T20:29:15.332Z,8.77
2022-09-30T20:31:43.292Z,9.80
2022-09-30T20:34:12.831Z,11.68
2022-09-30T20:36:40.591Z,8.85
2022-09-30T20:39:09.677Z,6.35
2022-09-30T20:41:38.130Z,6.78
2022-09-30T20:44:07.542Z,6.50
2022-09-30T20:46:35.294Z,6.55
2022-09-30T20:49:02.984Z,6.50
2022-09-30T20:51:31.130Z,6.65
2022-09-30T20:54:00.145Z,8.85
2022-09-30T20:56:44.095Z,7.50
2022-09-30T20:59:17.197Z,6.10
2022-09-30T21:01:44.652Z,6.53
2022-09-30T21:04:12.097Z,6.22
2022-09-30T21:06:39.702Z,7.37
2022-09-30T21:09:07.028Z,7.87
2022-09-30T21:11:34.723Z,6.68
2022-09-30T21:14:02.500Z,10.40
2022-09-30T21:16:29.934Z,5.97
2022-09-30T21:18:57.267Z,5.85
2022-09-30T21:21:26.798Z,6.15
2022-09-30T21:23:58.775Z,6.78
2022-09-30T21:26:26.889Z,6.62
2022-09-30T21:28:54.537Z,6.12
2022-09-30T21:31:24.824Z,6.12
2022-09-30T21:33:58.403Z,6.30
2022-09-30T21:36:27.226Z,5.82
2022-09-30T21:38:55.052Z,6.32
2022-09-30T21:41:22.878Z,6.75
2022-09-30T21:43:50.195Z,6.53
2022-09-30T21:46:18.701Z,8.88
2022-09-30T21:48:46.201Z,6.80
2022-09-30T21:51:13.906Z,10.07
2022-09-30T21:53:41.708Z,6.65
2022-09-30T21:56:11.606Z,7.50
2022-09-30T21:58:39.229Z,9.90
2022-09-30T22:01:07.394Z,8.70
2022-09-30T22:03:38.452Z,9.95
2022-09-30T22:06:07.538Z,7.50
2022-09-30T22:08:40.209Z,8.68
2022-09-30T22:11:11.245Z,8.93
2022-09-30T22:13:40.809Z,7.80
2022-09-30T22:16:08.741Z,9.90
2022-09-30T22:18:36.291Z,8.13
2022-09-30T22:21:06.260Z,9.70
2022-09-30T22:23:33.551Z,11.52
2022-09-30T22:26:08.859Z,9.82
2022-09-30T22:28:37.549Z,10.23
2022-09-30T22:31:19.446Z,12.13
2022-09-30T22:34:06.904Z,9.85
2022-09-30T22:36:53.547Z,9.00
2022-09-30T22:39:21.363Z,9.68
2022-09-30T22:41:50.230Z,9.50
2022-09-30T22:44:17.741Z,10.52
2022-09-30T22:46:45.383Z,11.30
2022-09-30T22:49:12.804Z,9.90
2022-09-30T22:51:40.105Z,9.45
2022-09-30T22:54:07.933Z,10.88
2022-09-30T22:56:35.273Z,9.98
2022-09-30T22:59:02.563Z,9.93
2022-09-30T23:01:31.870Z,9.45
2022-09-30T23:03:59.644Z,8.63
2022-09-30T23:06:27.000Z,9.57
2022-09-30T23:08:55.626Z,9.48
2022-09-30T23:11:23.343Z,8.57
2022-09-30T23:13:52.563Z,8.98
2022-09-30T23:16:22.188Z,10.15
2022-09-30T23:18:49.599Z,9.02
2022-09-30T23:21:18.514Z,10.43
2022-09-30T23:23:48.327Z,13.05
2022-09-30T23:26:21.246Z,10.50
2022-09-30T23:28:49.292Z,10.65
2022-09-30T23:31:17.227Z,11.52
2022-09-30T23:33:49.617Z,11.82
2022-09-30T23:36:19.707Z,15.65
2022-09-30T23:38:47.151Z,16.10
2022-09-30T23:41:14.502Z,13.35
2022-09-30T23:43:48.376Z,13.52
2022-09-30T23:46:17.308Z,13.73
2022-09-30T23:48:45.933Z,15.60
2022-09-30T23:51:15.417Z,13.57
2022-09-30T23:53:42.809Z,12.93
2022-09-30T23:56:15.609Z,16.35
2022-09-30T23:58:45.996Z,15.23
